Flight Track Log - Related Links

Times and Time Zones

All times are in EDT time to prevent confusion due to time zone crossing. See the KAP550 flight status page for this flight to view local times or setup timezone preferences in your user account.

Time Position Orientation Groundspeed Altitude Reporting Facility
EDT Latitude Longitude Course Direction KTS MPH feet Rate Location/Type
Tue 05:12:07 PM 44.6594 -74.7281 160° South 150 173 10,500  Level Boston Center
Tue 05:13:08 PM 44.6142 -74.7089 163° South 160 184 11,700 550 Climbing Boston Center
Tue 05:14:07 PM 44.5583 -74.6806 160° South 184 212 11,600 -50 Descending Boston Center
Tue 05:15:07 PM 44.5006 -74.6522 161° South 210 242 11,600 -50 Level Boston Center
Tue 05:16:07 PM 44.4469 -74.6239 159° South 215 247 11,500 -50 Descending Boston Center
Tue 05:17:00 PM 44.7489 -74.7495 160° South  Level FlightAware Approximate
Tue 05:17:07 PM 44.3911 -74.5958 160° South 215 247 11,500  Level Boston Center
Tue 05:18:07 PM 44.3394 -74.5706 161° South 210 242 11,600 50 Climbing Boston Center
Tue 05:19:07 PM 44.2839 -74.5425 160° South 205 236 11,600  Level Boston Center
Tue 05:20:07 PM 44.2322 -74.5175 161° South 205 236 11,600  Level Boston Center
Tue 05:21:07 PM 44.1783 -74.4897 160° South 205 236 11,600  Level Boston Center
Tue 05:22:07 PM 44.1247 -74.4647 161° South 205 236 11,600  Level Boston Center
Tue 05:23:07 PM 44.0711 -74.4397 161° South 205 236 11,600  Level Boston Center
Tue 05:24:07 PM 44.0194 -74.4147 161° South 205 236 11,600  Level Boston Center
Tue 05:25:08 PM 43.9636 -74.3869 160° South 205 236 11,600  Level Boston Center
Tue 05:26:07 PM 43.9097 -74.3622 162° South 205 236 11,600  Level Boston Center
Tue 05:27:07 PM 43.8561 -74.3347 160° South 205 236 11,600 -50 Level Boston Center
Tue 05:28:07 PM 43.8003 -74.3097 162° South 210 242 11,500  Descending Boston Center
Tue 05:29:07 PM 43.7486 -74.2822 159° South 210 242 11,600 50 Climbing Boston Center
Tue 05:30:07 PM 43.6947 -74.2550 160° South 210 242 11,600 -50 Level Boston Center
Tue 05:31:08 PM 43.6369 -74.2272 161° South 210 242 11,500 -50 Descending Boston Center
Tue 05:32:07 PM 43.5831 -74.2028 162° South 210 242 11,500  Level Boston Center
Tue 05:33:07 PM 43.5292 -74.1756 160° South 210 242 11,500  Level Boston Center
Tue 05:33:29 PM 43.5106 -74.1692 166° South 210 242 11,500 -200 Level Boston Center
Tue 05:34:07 PM 43.4733 -74.1511 161° South 210 242 11,300 -725 Descending Boston Center
Tue 05:35:00 PM 43.4194 -74.1322 166° South 230 265 10,400 -903 Descending Boston Center
Tue 05:36:00 PM 43.3594 -74.1136 167° South 233 268 9,600 -793 Descending Boston Center
Tue 05:37:01 PM 43.3014 -74.0919 165° South 215 247 8,800 -639 Descending Boston Center
Tue 05:38:02 PM 43.2389 -74.0731 168° South 206 237 8,300 -496 Descending Boston Center
Tue 05:39:02 PM 43.1850 -74.0517 164° South 201 231 7,800 -545 Descending Boston Center
Tue 05:40:03 PM 43.1311 -74.0361 168° South 205 236 7,200 -689 Descending Boston Center
Tue 05:41:04 PM 43.0772 -74.0178 166° South 207 238 6,400 -694 Descending Boston Center
Tue 05:42:04 PM 43.0211 -73.9964 164° South 204 235 5,800 -694 Descending Boston Center
Tue 05:43:05 PM 42.9653 -73.9694 161° South 205 236 5,000 -836 Descending Boston Center
Tue 05:44:06 PM 42.9136 -73.9425 159° South 206 237 4,100 -843 Descending Boston Center
Tue 05:45:06 PM 42.8578 -73.9131 159° South 203 234 3,300 -694 Descending Boston Center
Tue 05:46:07 PM 42.8058 -73.8861 159° South 197 227 2,700 -689 Descending Boston Center
Tue 05:47:08 PM 42.7542 -73.8625 161° South 196 226 1,900 4,364 Descending Boston Center
Tue 05:48:08 PM 42.7022 -73.8414 163° South 206 237 11,500 9,600 Climbing Boston Center
Tue 05:50:00 PM 42.7333 -73.8000 170° South  Level FlightAware Approximate
Tue 05:57:00 PM 42.7491 -73.8020 170° South  Level Estimated
Tue 05:58:00 PM 42.7491 -73.8020 170° South  Level Estimated
Tue 05:59:00 PM 42.7491 -73.8020 170° South  Level Estimated
Tue 06:00:00 PM 42.7491 -73.8020 170° South  Level Estimated

Login

Don't have an account? Register now (free) for customized features, flight alerts, and more!